< < Back
Terminal Aerodrome Forecast


Current Version              Previous Versions:   1  2  3  4  5  6  7  8  9  

Terminal Aerodrome Forecast

194
FTUS42 KJAX 230500
TAFSSI
TAF
KSSI 230520Z 2306/2406 08010KT P6SM VCSH SCT025 OVC040
      WS020/12040KT
      TEMPO 2306/2309 3SM RA BR OVC025
     FM230900 10012KT 5SM -RA VCTS BKN015CB OVC040 WS020/15040KT
      TEMPO 2309/2313 2SM RA BKN006 OVC015
     FM231800 17014G22KT P6SM VCTS SCT025CB BKN035
     FM240100 18012KT P6SM VCSH SCT035 BKN050=

Latest METAR

451
SAUS70 KWBC 231100 RRC
MTRSSI
METAR KSSI 231053Z AUTO 09013KT 2 1/2SM RA BR FEW004 BKN029 OVC034 17/17
A3001 RMK AO2 LTG DSNT S SLP163 P0026 T01720172


USA.gov is the U.S. government's official web portal to all federal, state and local government web resources and services.